sensor_id;sensor_type;location;lat;lon;timestamp;temperature;humidity
64209;DHT22;50527;52.414;13.226;2022-11-15T00:00:47;5.50;96.90
64209;DHT22;50527;52.414;13.226;2022-11-15T00:03:14;5.50;97.50
64209;DHT22;50527;52.414;13.226;2022-11-15T00:05:40;5.50;97.10
64209;DHT22;50527;52.414;13.226;2022-11-15T00:08:06;5.50;96.90
64209;DHT22;50527;52.414;13.226;2022-11-15T00:10:31;5.50;97.50
64209;DHT22;50527;52.414;13.226;2022-11-15T00:12:57;5.50;97.90
64209;DHT22;50527;52.414;13.226;2022-11-15T00:15:22;5.40;98.40
64209;DHT22;50527;52.414;13.226;2022-11-15T00:21:11;5.40;97.90
64209;DHT22;50527;52.414;13.226;2022-11-15T00:23:38;5.40;98.20
64209;DHT22;50527;52.414;13.226;2022-11-15T00:26:03;5.40;98.10
64209;DHT22;50527;52.414;13.226;2022-11-15T00:28:29;5.30;98.20
64209;DHT22;50527;52.414;13.226;2022-11-15T00:31:06;5.40;98.30
64209;DHT22;50527;52.414;13.226;2022-11-15T00:33:32;5.30;98.50
64209;DHT22;50527;52.414;13.226;2022-11-15T00:36:02;5.30;97.90
64209;DHT22;50527;52.414;13.226;2022-11-15T00:38:33;5.30;97.00
64209;DHT22;50527;52.414;13.226;2022-11-15T00:40:59;5.30;98.10
64209;DHT22;50527;52.414;13.226;2022-11-15T00:43:24;5.30;98.10
64209;DHT22;50527;52.414;13.226;2022-11-15T00:45:50;5.30;97.80
64209;DHT22;50527;52.414;13.226;2022-11-15T00:48:15;5.30;97.60
64209;DHT22;50527;52.414;13.226;2022-11-15T00:50:41;5.20;96.90
64209;DHT22;50527;52.414;13.226;2022-11-15T00:53:06;5.20;96.80
64209;DHT22;50527;52.414;13.226;2022-11-15T00:55:32;5.20;96.80
64209;DHT22;50527;52.414;13.226;2022-11-15T00:57:57;5.20;96.90
64209;DHT22;50527;52.414;13.226;2022-11-15T01:00:23;5.20;96.20
64209;DHT22;50527;52.414;13.226;2022-11-15T01:02:48;5.20;95.50
64209;DHT22;50527;52.414;13.226;2022-11-15T01:05:14;5.10;96.10
64209;DHT22;50527;52.414;13.226;2022-11-15T01:07:39;5.10;96.40
64209;DHT22;50527;52.414;13.226;2022-11-15T01:10:05;5.10;97.10
64209;DHT22;50527;52.414;13.226;2022-11-15T01:12:31;5.10;96.70
64209;DHT22;50527;52.414;13.226;2022-11-15T01:14:57;5.10;96.50
64209;DHT22;50527;52.414;13.226;2022-11-15T01:17:22;5.00;97.10
64209;DHT22;50527;52.414;13.226;2022-11-15T01:19:48;5.00;97.70
64209;DHT22;50527;52.414;13.226;2022-11-15T01:22:13;5.00;97.10
64209;DHT22;50527;52.414;13.226;2022-11-15T01:24:39;5.00;96.10
64209;DHT22;50527;52.414;13.226;2022-11-15T01:27:04;5.00;96.10
64209;DHT22;50527;52.414;13.226;2022-11-15T01:29:30;5.00;96.70
64209;DHT22;50527;52.414;13.226;2022-11-15T01:31:55;4.90;97.00
64209;DHT22;50527;52.414;13.226;2022-11-15T01:34:21;4.90;96.60
64209;DHT22;50527;52.414;13.226;2022-11-15T01:36:46;4.90;96.60
64209;DHT22;50527;52.414;13.226;2022-11-15T01:39:12;4.90;96.50
64209;DHT22;50527;52.414;13.226;2022-11-15T01:41:37;4.80;97.30
64209;DHT22;50527;52.414;13.226;2022-11-15T01:44:36;4.80;97.20
64209;DHT22;50527;52.414;13.226;2022-11-15T01:47:11;4.80;96.50
64209;DHT22;50527;52.414;13.226;2022-11-15T01:49:41;4.80;96.80
64209;DHT22;50527;52.414;13.226;2022-11-15T01:52:14;4.80;97.20
64209;DHT22;50527;52.414;13.226;2022-11-15T01:54:40;4.80;97.40
64209;DHT22;50527;52.414;13.226;2022-11-15T01:57:09;4.80;96.60
64209;DHT22;50527;52.414;13.226;2022-11-15T01:59:37;4.70;95.90
64209;DHT22;50527;52.414;13.226;2022-11-15T02:02:03;4.70;96.30
64209;DHT22;50527;52.414;13.226;2022-11-15T02:04:31;4.70;95.90
64209;DHT22;50527;52.414;13.226;2022-11-15T02:06:57;4.70;96.30
64209;DHT22;50527;52.414;13.226;2022-11-15T02:09:23;4.70;96.60
64209;DHT22;50527;52.414;13.226;2022-11-15T02:11:49;4.70;96.80
64209;DHT22;50527;52.414;13.226;2022-11-15T02:14:18;4.70;97.00
64209;DHT22;50527;52.414;13.226;2022-11-15T02:22:11;4.70;96.70
64209;DHT22;50527;52.414;13.226;2022-11-15T02:31:01;4.70;96.40
64209;DHT22;50527;52.414;13.226;2022-11-15T02:36:24;4.60;95.90
64209;DHT22;50527;52.414;13.226;2022-11-15T02:39:13;4.60;95.80
64209;DHT22;50527;52.414;13.226;2022-11-15T02:42:01;4.60;96.30
64209;DHT22;50527;52.414;13.226;2022-11-15T02:44:37;4.50;97.10
64209;DHT22;50527;52.414;13.226;2022-11-15T02:47:07;4.60;97.40
64209;DHT22;50527;52.414;13.226;2022-11-15T02:49:42;4.50;97.80
64209;DHT22;50527;52.414;13.226;2022-11-15T02:52:08;4.50;97.90
64209;DHT22;50527;52.414;13.226;2022-11-15T02:54:34;4.50;97.70
64209;DHT22;50527;52.414;13.226;2022-11-15T02:57:23;4.50;97.20
64209;DHT22;50527;52.414;13.226;2022-11-15T03:00:12;4.50;97.80
64209;DHT22;50527;52.414;13.226;2022-11-15T03:03:08;4.60;98.00
64209;DHT22;50527;52.414;13.226;2022-11-15T03:05:53;4.60;98.00
64209;DHT22;50527;52.414;13.226;2022-11-15T03:13:44;4.50;97.60
64209;DHT22;50527;52.414;13.226;2022-11-15T03:16:30;4.50;97.60
64209;DHT22;50527;52.414;13.226;2022-11-15T03:19:08;4.50;97.40
64209;DHT22;50527;52.414;13.226;2022-11-15T03:21:37;4.60;97.50
64209;DHT22;50527;52.414;13.226;2022-11-15T03:24:06;4.50;97.80
64209;DHT22;50527;52.414;13.226;2022-11-15T03:26:34;4.50;97.80
64209;DHT22;50527;52.414;13.226;2022-11-15T03:29:15;4.40;97.90
64209;DHT22;50527;52.414;13.226;2022-11-15T03:31:47;4.30;98.30
64209;DHT22;50527;52.414;13.226;2022-11-15T03:36:46;4.40;98.00
64209;DHT22;50527;52.414;13.226;2022-11-15T03:39:13;4.30;97.40
64209;DHT22;50527;52.414;13.226;2022-11-15T03:41:48;4.40;97.90
64209;DHT22;50527;52.414;13.226;2022-11-15T03:44:24;4.40;97.80
64209;DHT22;50527;52.414;13.226;2022-11-15T03:47:03;4.40;97.90
64209;DHT22;50527;52.414;13.226;2022-11-15T03:49:33;4.40;97.90
64209;DHT22;50527;52.414;13.226;2022-11-15T03:52:01;4.40;97.40
64209;DHT22;50527;52.414;13.226;2022-11-15T03:54:27;4.40;96.70
64209;DHT22;50527;52.414;13.226;2022-11-15T03:56:53;4.30;97.00
64209;DHT22;50527;52.414;13.226;2022-11-15T03:59:18;4.30;96.70
64209;DHT22;50527;52.414;13.226;2022-11-15T04:01:43;4.30;97.50
64209;DHT22;50527;52.414;13.226;2022-11-15T04:04:09;4.30;98.50
64209;DHT22;50527;52.414;13.226;2022-11-15T04:06:35;4.30;98.80
64209;DHT22;50527;52.414;13.226;2022-11-15T04:09:01;4.30;98.30
64209;DHT22;50527;52.414;13.226;2022-11-15T04:11:26;4.20;97.50
64209;DHT22;50527;52.414;13.226;2022-11-15T04:13:51;4.30;98.00
64209;DHT22;50527;52.414;13.226;2022-11-15T04:16:17;4.30;98.30
64209;DHT22;50527;52.414;13.226;2022-11-15T04:18:42;4.30;98.60
64209;DHT22;50527;52.414;13.226;2022-11-15T04:21:08;4.30;98.80
64209;DHT22;50527;52.414;13.226;2022-11-15T04:23:52;4.30;98.80
64209;DHT22;50527;52.414;13.226;2022-11-15T04:26:20;4.30;98.30
64209;DHT22;50527;52.414;13.226;2022-11-15T04:28:46;4.30;97.80
64209;DHT22;50527;52.414;13.226;2022-11-15T04:31:30;4.30;96.70
64209;DHT22;50527;52.414;13.226;2022-11-15T04:33:55;4.30;96.80
64209;DHT22;50527;52.414;13.226;2022-11-15T04:36:21;4.30;97.50
64209;DHT22;50527;52.414;13.226;2022-11-15T04:39:06;4.30;97.90
64209;DHT22;50527;52.414;13.226;2022-11-15T04:41:31;4.30;97.60
64209;DHT22;50527;52.414;13.226;2022-11-15T04:43:57;4.30;97.80
64209;DHT22;50527;52.414;13.226;2022-11-15T04:46:23;4.30;97.80
64209;DHT22;50527;52.414;13.226;2022-11-15T04:48:50;4.30;98.20
64209;DHT22;50527;52.414;13.226;2022-11-15T04:51:16;4.30;98.90
64209;DHT22;50527;52.414;13.226;2022-11-15T04:53:41;4.20;98.40
64209;DHT22;50527;52.414;13.226;2022-11-15T04:56:07;4.20;98.40
64209;DHT22;50527;52.414;13.226;2022-11-15T04:58:33;4.30;98.50
64209;DHT22;50527;52.414;13.226;2022-11-15T05:01:07;4.30;98.70
64209;DHT22;50527;52.414;13.226;2022-11-15T05:03:33;4.20;99.00
64209;DHT22;50527;52.414;13.226;2022-11-15T05:06:17;4.30;98.50
64209;DHT22;50527;52.414;13.226;2022-11-15T05:08:42;4.30;97.80
64209;DHT22;50527;52.414;13.226;2022-11-15T05:11:08;4.30;97.40
64209;DHT22;50527;52.414;13.226;2022-11-15T05:13:33;4.30;97.70
64209;DHT22;50527;52.414;13.226;2022-11-15T05:15:58;4.30;97.80
64209;DHT22;50527;52.414;13.226;2022-11-15T05:18:24;4.30;97.60
64209;DHT22;50527;52.414;13.226;2022-11-15T05:20:49;4.30;97.50
64209;DHT22;50527;52.414;13.226;2022-11-15T05:23:15;4.20;97.50
64209;DHT22;50527;52.414;13.226;2022-11-15T05:25:40;4.20;97.20
64209;DHT22;50527;52.414;13.226;2022-11-15T05:28:06;4.20;97.40
64209;DHT22;50527;52.414;13.226;2022-11-15T05:30:31;4.20;97.90
64209;DHT22;50527;52.414;13.226;2022-11-15T05:32:57;4.20;98.00
64209;DHT22;50527;52.414;13.226;2022-11-15T05:35:30;4.20;97.60
64209;DHT22;50527;52.414;13.226;2022-11-15T05:37:58;4.20;98.00
64209;DHT22;50527;52.414;13.226;2022-11-15T05:40:23;4.10;98.90
64209;DHT22;50527;52.414;13.226;2022-11-15T05:42:49;4.20;99.10
64209;DHT22;50527;52.414;13.226;2022-11-15T05:45:15;4.10;98.70
64209;DHT22;50527;52.414;13.226;2022-11-15T05:47:41;4.10;98.80
64209;DHT22;50527;52.414;13.226;2022-11-15T05:50:08;4.10;99.10
64209;DHT22;50527;52.414;13.226;2022-11-15T05:52:37;4.10;99.00
64209;DHT22;50527;52.414;13.226;2022-11-15T05:55:04;4.10;99.00
64209;DHT22;50527;52.414;13.226;2022-11-15T05:57:31;4.10;98.20
64209;DHT22;50527;52.414;13.226;2022-11-15T05:59:58;4.10;97.50
64209;DHT22;50527;52.414;13.226;2022-11-15T06:02:23;4.10;97.20
64209;DHT22;50527;52.414;13.226;2022-11-15T06:04:49;4.10;98.40
64209;DHT22;50527;52.414;13.226;2022-11-15T06:07:14;4.10;98.50
64209;DHT22;50527;52.414;13.226;2022-11-15T06:09:39;4.10;98.40
64209;DHT22;50527;52.414;13.226;2022-11-15T06:12:05;4.10;98.70
64209;DHT22;50527;52.414;13.226;2022-11-15T06:14:31;4.10;98.60
64209;DHT22;50527;52.414;13.226;2022-11-15T06:16:56;4.20;98.20
64209;DHT22;50527;52.414;13.226;2022-11-15T06:19:21;4.20;97.90
64209;DHT22;50527;52.414;13.226;2022-11-15T06:21:47;4.10;98.10
64209;DHT22;50527;52.414;13.226;2022-11-15T06:24:12;4.10;98.30
64209;DHT22;50527;52.414;13.226;2022-11-15T06:26:38;4.10;98.60
64209;DHT22;50527;52.414;13.226;2022-11-15T06:29:04;4.20;98.70
64209;DHT22;50527;52.414;13.226;2022-11-15T06:31:29;4.10;99.10
64209;DHT22;50527;52.414;13.226;2022-11-15T06:33:55;4.10;98.90
64209;DHT22;50527;52.414;13.226;2022-11-15T06:36:20;4.20;99.00
64209;DHT22;50527;52.414;13.226;2022-11-15T06:38:46;4.10;98.70
64209;DHT22;50527;52.414;13.226;2022-11-15T06:41:13;4.10;98.90
64209;DHT22;50527;52.414;13.226;2022-11-15T06:43:39;4.20;98.40
64209;DHT22;50527;52.414;13.226;2022-11-15T06:46:06;4.20;98.50
64209;DHT22;50527;52.414;13.226;2022-11-15T06:48:33;4.20;98.10
64209;DHT22;50527;52.414;13.226;2022-11-15T06:51:00;4.20;98.70
64209;DHT22;50527;52.414;13.226;2022-11-15T06:53:26;4.20;99.30
64209;DHT22;50527;52.414;13.226;2022-11-15T06:55:52;4.20;98.50
64209;DHT22;50527;52.414;13.226;2022-11-15T06:58:18;4.30;97.50
64209;DHT22;50527;52.414;13.226;2022-11-15T07:00:43;4.30;97.70
64209;DHT22;50527;52.414;13.226;2022-11-15T07:03:09;4.30;97.60
64209;DHT22;50527;52.414;13.226;2022-11-15T07:05:35;4.30;98.40
64209;DHT22;50527;52.414;13.226;2022-11-15T07:08:02;4.20;98.50
64209;DHT22;50527;52.414;13.226;2022-11-15T07:10:28;4.30;99.30
64209;DHT22;50527;52.414;13.226;2022-11-15T07:12:54;4.30;98.40
64209;DHT22;50527;52.414;13.226;2022-11-15T07:15:23;4.40;98.30
64209;DHT22;50527;52.414;13.226;2022-11-15T07:17:49;4.30;99.20
64209;DHT22;50527;52.414;13.226;2022-11-15T07:20:15;4.40;99.30
64209;DHT22;50527;52.414;13.226;2022-11-15T07:22:41;4.50;99.40
64209;DHT22;50527;52.414;13.226;2022-11-15T07:25:08;4.50;99.80
64209;DHT22;50527;52.414;13.226;2022-11-15T07:27:33;4.60;99.80
64209;DHT22;50527;52.414;13.226;2022-11-15T07:29:59;4.60;99.60
64209;DHT22;50527;52.414;13.226;2022-11-15T07:32:24;4.60;99.10
64209;DHT22;50527;52.414;13.226;2022-11-15T07:34:50;4.70;99.00
64209;DHT22;50527;52.414;13.226;2022-11-15T07:37:16;4.80;99.30
64209;DHT22;50527;52.414;13.226;2022-11-15T07:39:45;4.80;99.50
64209;DHT22;50527;52.414;13.226;2022-11-15T07:42:10;4.90;99.10
64209;DHT22;50527;52.414;13.226;2022-11-15T07:44:54;4.90;99.10
64209;DHT22;50527;52.414;13.226;2022-11-15T07:47:19;4.90;99.50
64209;DHT22;50527;52.414;13.226;2022-11-15T07:49:46;5.00;99.60
64209;DHT22;50527;52.414;13.226;2022-11-15T07:52:12;5.10;99.60
64209;DHT22;50527;52.414;13.226;2022-11-15T07:54:37;5.20;99.90
64209;DHT22;50527;52.414;13.226;2022-11-15T07:57:03;5.20;99.90
64209;DHT22;50527;52.414;13.226;2022-11-15T07:59:29;5.20;99.20
64209;DHT22;50527;52.414;13.226;2022-11-15T08:01:54;5.30;99.40
64209;DHT22;50527;52.414;13.226;2022-11-15T08:04:20;5.40;99.60
64209;DHT22;50527;52.414;13.226;2022-11-15T08:06:45;5.50;99.60
64209;DHT22;50527;52.414;13.226;2022-11-15T08:09:11;5.50;99.30
64209;DHT22;50527;52.414;13.226;2022-11-15T08:11:36;5.60;99.20
64209;DHT22;50527;52.414;13.226;2022-11-15T08:14:02;5.60;99.20
64209;DHT22;50527;52.414;13.226;2022-11-15T08:16:27;5.60;99.20
64209;DHT22;50527;52.414;13.226;2022-11-15T08:18:53;5.70;99.40
64209;DHT22;50527;52.414;13.226;2022-11-15T08:21:20;5.70;99.50
64209;DHT22;50527;52.414;13.226;2022-11-15T08:23:45;5.80;99.90
64209;DHT22;50527;52.414;13.226;2022-11-15T08:26:11;5.80;99.90
64209;DHT22;50527;52.414;13.226;2022-11-15T08:28:37;5.90;99.90
64209;DHT22;50527;52.414;13.226;2022-11-15T08:31:03;6.00;99.90
64209;DHT22;50527;52.414;13.226;2022-11-15T08:33:29;6.10;99.90
64209;DHT22;50527;52.414;13.226;2022-11-15T08:35:59;6.20;99.90
64209;DHT22;50527;52.414;13.226;2022-11-15T08:38:26;6.30;99.90
64209;DHT22;50527;52.414;13.226;2022-11-15T08:40:53;6.30;99.90
64209;DHT22;50527;52.414;13.226;2022-11-15T08:43:23;6.40;99.90
64209;DHT22;50527;52.414;13.226;2022-11-15T08:45:49;6.40;99.90
64209;DHT22;50527;52.414;13.226;2022-11-15T08:48:14;6.50;99.90
64209;DHT22;50527;52.414;13.226;2022-11-15T08:50:40;6.60;99.90
64209;DHT22;50527;52.414;13.226;2022-11-15T08:53:07;6.70;99.90
64209;DHT22;50527;52.414;13.226;2022-11-15T08:55:36;7.00;99.90
64209;DHT22;50527;52.414;13.226;2022-11-15T08:58:01;7.20;99.90
64209;DHT22;50527;52.414;13.226;2022-11-15T09:00:27;7.50;99.90
64209;DHT22;50527;52.414;13.226;2022-11-15T09:02:55;7.60;99.90
64209;DHT22;50527;52.414;13.226;2022-11-15T09:05:21;7.60;99.90
64209;DHT22;50527;52.414;13.226;2022-11-15T09:07:46;7.70;99.90
64209;DHT22;50527;52.414;13.226;2022-11-15T09:10:12;7.70;99.90
64209;DHT22;50527;52.414;13.226;2022-11-15T09:12:37;7.70;99.90
64209;DHT22;50527;52.414;13.226;2022-11-15T09:15:04;7.90;99.90
64209;DHT22;50527;52.414;13.226;2022-11-15T09:17:30;8.10;99.90
64209;DHT22;50527;52.414;13.226;2022-11-15T09:19:56;8.20;99.90
64209;DHT22;50527;52.414;13.226;2022-11-15T09:22:21;8.50;99.90
64209;DHT22;50527;52.414;13.226;2022-11-15T09:24:47;8.80;98.20
64209;DHT22;50527;52.414;13.226;2022-11-15T09:27:12;9.00;97.60
64209;DHT22;50527;52.414;13.226;2022-11-15T09:29:38;9.10;97.10
64209;DHT22;50527;52.414;13.226;2022-11-15T09:32:04;9.10;96.90
64209;DHT22;50527;52.414;13.226;2022-11-15T09:34:30;9.10;97.10
64209;DHT22;50527;52.414;13.226;2022-11-15T09:36:55;9.10;97.50
64209;DHT22;50527;52.414;13.226;2022-11-15T09:39:21;9.10;97.70
64209;DHT22;50527;52.414;13.226;2022-11-15T09:42:12;9.10;97.80
64209;DHT22;50527;52.414;13.226;2022-11-15T09:45:09;9.10;98.20
64209;DHT22;50527;52.414;13.226;2022-11-15T09:48:03;9.00;99.00
64209;DHT22;50527;52.414;13.226;2022-11-15T09:53:29;9.10;99.20
64209;DHT22;50527;52.414;13.226;2022-11-15T09:56:03;9.10;99.90
64209;DHT22;50527;52.414;13.226;2022-11-15T09:58:42;9.10;99.90
64209;DHT22;50527;52.414;13.226;2022-11-15T10:03:59;9.20;99.90
64209;DHT22;50527;52.414;13.226;2022-11-15T10:06:26;9.20;99.70
64209;DHT22;50527;52.414;13.226;2022-11-15T10:09:04;9.30;99.70
64209;DHT22;50527;52.414;13.226;2022-11-15T10:11:35;9.40;99.90
64209;DHT22;50527;52.414;13.226;2022-11-15T10:14:09;9.50;99.90
64209;DHT22;50527;52.414;13.226;2022-11-15T10:17:03;9.50;99.50
64209;DHT22;50527;52.414;13.226;2022-11-15T10:20:00;9.60;99.40
64209;DHT22;50527;52.414;13.226;2022-11-15T10:22:41;9.80;99.60
64209;DHT22;50527;52.414;13.226;2022-11-15T10:27:39;10.20;97.20
64209;DHT22;50527;52.414;13.226;2022-11-15T10:30:12;10.20;96.80
64209;DHT22;50527;52.414;13.226;2022-11-15T10:32:39;10.30;95.50
64209;DHT22;50527;52.414;13.226;2022-11-15T10:35:25;10.30;96.30
64209;DHT22;50527;52.414;13.226;2022-11-15T10:38:07;10.40;96.00
64209;DHT22;50527;52.414;13.226;2022-11-15T10:40:34;10.50;95.50
64209;DHT22;50527;52.414;13.226;2022-11-15T10:45:32;10.90;94.40
64209;DHT22;50527;52.414;13.226;2022-11-15T10:50:43;11.30;93.90
64209;DHT22;50527;52.414;13.226;2022-11-15T10:53:29;11.50;93.10
64209;DHT22;50527;52.414;13.226;2022-11-15T10:56:00;11.70;92.20
64209;DHT22;50527;52.414;13.226;2022-11-15T10:58:42;12.00;92.10
64209;DHT22;50527;52.414;13.226;2022-11-15T11:01:13;12.10;90.90
64209;DHT22;50527;52.414;13.226;2022-11-15T11:03:40;12.20;91.20
64209;DHT22;50527;52.414;13.226;2022-11-15T11:06:15;12.30;89.60
64209;DHT22;50527;52.414;13.226;2022-11-15T11:08:57;12.40;89.00
64209;DHT22;50527;52.414;13.226;2022-11-15T11:11:23;12.50;85.10
64209;DHT22;50527;52.414;13.226;2022-11-15T11:13:49;12.60;84.80
64209;DHT22;50527;52.414;13.226;2022-11-15T11:19:03;12.80;86.00
64209;DHT22;50527;52.414;13.226;2022-11-15T11:21:45;12.90;83.50
64209;DHT22;50527;52.414;13.226;2022-11-15T11:24:21;13.00;82.90
64209;DHT22;50527;52.414;13.226;2022-11-15T11:30:06;13.00;84.50
64209;DHT22;50527;52.414;13.226;2022-11-15T11:46:59;12.50;89.00
64209;DHT22;50527;52.414;13.226;2022-11-15T11:49:39;12.40;88.30
64209;DHT22;50527;52.414;13.226;2022-11-15T11:52:22;12.40;86.20
64209;DHT22;50527;52.414;13.226;2022-11-15T11:57:57;12.50;84.90
64209;DHT22;50527;52.414;13.226;2022-11-15T12:00:26;12.50;85.80
64209;DHT22;50527;52.414;13.226;2022-11-15T12:08:43;12.60;87.60
64209;DHT22;50527;52.414;13.226;2022-11-15T12:11:19;12.60;85.30
64209;DHT22;50527;52.414;13.226;2022-11-15T12:13:49;12.60;86.40
64209;DHT22;50527;52.414;13.226;2022-11-15T12:16:26;12.60;86.30
64209;DHT22;50527;52.414;13.226;2022-11-15T12:18:54;12.60;86.10
64209;DHT22;50527;52.414;13.226;2022-11-15T12:21:43;12.60;87.00
64209;DHT22;50527;52.414;13.226;2022-11-15T12:24:17;12.60;87.50
64209;DHT22;50527;52.414;13.226;2022-11-15T12:27:01;12.60;87.70
64209;DHT22;50527;52.414;13.226;2022-11-15T12:29:43;12.60;88.20
64209;DHT22;50527;52.414;13.226;2022-11-15T12:32:26;12.60;88.30
64209;DHT22;50527;52.414;13.226;2022-11-15T12:34:53;12.60;87.00
64209;DHT22;50527;52.414;13.226;2022-11-15T12:40:21;12.80;86.50
64209;DHT22;50527;52.414;13.226;2022-11-15T12:45:40;12.80;87.80
64209;DHT22;50527;52.414;13.226;2022-11-15T12:50:53;12.80;86.10
64209;DHT22;50527;52.414;13.226;2022-11-15T12:58:57;12.90;85.90
64209;DHT22;50527;52.414;13.226;2022-11-15T13:15:00;12.80;89.00
64209;DHT22;50527;52.414;13.226;2022-11-15T13:17:36;12.90;88.40
64209;DHT22;50527;52.414;13.226;2022-11-15T13:22:48;12.80;89.10
64209;DHT22;50527;52.414;13.226;2022-11-15T13:28:11;12.70;90.60
64209;DHT22;50527;52.414;13.226;2022-11-15T13:30:55;12.70;89.20
64209;DHT22;50527;52.414;13.226;2022-11-15T13:33:30;12.70;89.80
64209;DHT22;50527;52.414;13.226;2022-11-15T13:35:58;12.70;90.20
64209;DHT22;50527;52.414;13.226;2022-11-15T13:40:50;12.60;90.50
64209;DHT22;50527;52.414;13.226;2022-11-15T13:48:29;12.80;89.00
64209;DHT22;50527;52.414;13.226;2022-11-15T13:50:56;12.80;89.80
64209;DHT22;50527;52.414;13.226;2022-11-15T13:53:22;12.80;89.00
64209;DHT22;50527;52.414;13.226;2022-11-15T13:55:48;12.80;89.20
64209;DHT22;50527;52.414;13.226;2022-11-15T13:58:14;12.80;90.20
64209;DHT22;50527;52.414;13.226;2022-11-15T14:00:41;12.70;90.40
64209;DHT22;50527;52.414;13.226;2022-11-15T14:03:28;12.60;90.50
64209;DHT22;50527;52.414;13.226;2022-11-15T14:06:05;12.50;90.80
64209;DHT22;50527;52.414;13.226;2022-11-15T14:08:41;12.50;91.00
64209;DHT22;50527;52.414;13.226;2022-11-15T14:11:19;12.40;91.50
64209;DHT22;50527;52.414;13.226;2022-11-15T14:16:43;12.40;91.90
64209;DHT22;50527;52.414;13.226;2022-11-15T14:22:10;12.10;92.90
64209;DHT22;50527;52.414;13.226;2022-11-15T14:24:37;12.00;93.50
64209;DHT22;50527;52.414;13.226;2022-11-15T14:27:23;12.00;93.50
64209;DHT22;50527;52.414;13.226;2022-11-15T14:29:49;12.00;93.70
64209;DHT22;50527;52.414;13.226;2022-11-15T14:32:45;11.90;94.20
64209;DHT22;50527;52.414;13.226;2022-11-15T14:35:22;11.80;94.50
64209;DHT22;50527;52.414;13.226;2022-11-15T14:37:48;11.80;94.50
64209;DHT22;50527;52.414;13.226;2022-11-15T14:40:16;11.80;94.40
64209;DHT22;50527;52.414;13.226;2022-11-15T14:42:43;11.70;94.60
64209;DHT22;50527;52.414;13.226;2022-11-15T14:45:13;11.70;94.60
64209;DHT22;50527;52.414;13.226;2022-11-15T14:47:40;11.70;94.40
64209;DHT22;50527;52.414;13.226;2022-11-15T14:50:05;11.70;94.40
64209;DHT22;50527;52.414;13.226;2022-11-15T14:52:32;11.60;94.70
64209;DHT22;50527;52.414;13.226;2022-11-15T14:55:00;11.60;95.00
64209;DHT22;50527;52.414;13.226;2022-11-15T14:57:27;11.50;94.90
64209;DHT22;50527;52.414;13.226;2022-11-15T14:59:53;11.40;95.10
64209;DHT22;50527;52.414;13.226;2022-11-15T15:02:24;11.20;95.60
64209;DHT22;50527;52.414;13.226;2022-11-15T15:04:50;11.10;95.70
64209;DHT22;50527;52.414;13.226;2022-11-15T15:07:16;11.10;96.60
64209;DHT22;50527;52.414;13.226;2022-11-15T15:09:43;11.00;96.60
64209;DHT22;50527;52.414;13.226;2022-11-15T15:12:19;11.00;96.70
64209;DHT22;50527;52.414;13.226;2022-11-15T15:14:46;10.90;96.80
64209;DHT22;50527;52.414;13.226;2022-11-15T15:17:12;10.80;96.70
64209;DHT22;50527;52.414;13.226;2022-11-15T15:19:37;10.80;97.20
64209;DHT22;50527;52.414;13.226;2022-11-15T15:22:03;10.80;97.60
64209;DHT22;50527;52.414;13.226;2022-11-15T15:24:28;10.80;97.50
64209;DHT22;50527;52.414;13.226;2022-11-15T15:26:54;10.70;97.50
64209;DHT22;50527;52.414;13.226;2022-11-15T15:29:19;10.70;97.40
64209;DHT22;50527;52.414;13.226;2022-11-15T15:31:45;10.60;97.00
64209;DHT22;50527;52.414;13.226;2022-11-15T15:34:10;10.50;97.00
64209;DHT22;50527;52.414;13.226;2022-11-15T15:36:36;10.50;97.20
64209;DHT22;50527;52.414;13.226;2022-11-15T15:39:01;10.50;97.40
64209;DHT22;50527;52.414;13.226;2022-11-15T15:41:27;10.50;97.90
64209;DHT22;50527;52.414;13.226;2022-11-15T15:43:52;10.40;97.90
64209;DHT22;50527;52.414;13.226;2022-11-15T15:46:19;10.40;97.70
64209;DHT22;50527;52.414;13.226;2022-11-15T15:48:45;10.30;97.50
64209;DHT22;50527;52.414;13.226;2022-11-15T15:51:11;10.30;97.50
64209;DHT22;50527;52.414;13.226;2022-11-15T15:53:37;10.20;97.30
64209;DHT22;50527;52.414;13.226;2022-11-15T15:56:02;10.20;97.30
64209;DHT22;50527;52.414;13.226;2022-11-15T15:58:28;10.10;97.20
64209;DHT22;50527;52.414;13.226;2022-11-15T16:00:53;10.10;97.20
64209;DHT22;50527;52.414;13.226;2022-11-15T16:03:19;10.00;97.80
64209;DHT22;50527;52.414;13.226;2022-11-15T16:05:44;10.00;98.40
64209;DHT22;50527;52.414;13.226;2022-11-15T16:08:18;9.90;98.90
64209;DHT22;50527;52.414;13.226;2022-11-15T16:10:44;9.90;98.40
64209;DHT22;50527;52.414;13.226;2022-11-15T16:13:09;9.90;97.80
64209;DHT22;50527;52.414;13.226;2022-11-15T16:15:35;9.80;97.80
64209;DHT22;50527;52.414;13.226;2022-11-15T16:18:01;9.80;97.50
64209;DHT22;50527;52.414;13.226;2022-11-15T16:20:39;9.70;97.90
64209;DHT22;50527;52.414;13.226;2022-11-15T16:23:10;9.70;97.90
64209;DHT22;50527;52.414;13.226;2022-11-15T16:25:42;9.70;97.80
64209;DHT22;50527;52.414;13.226;2022-11-15T16:28:20;9.70;97.80
64209;DHT22;50527;52.414;13.226;2022-11-15T16:30:45;9.70;98.60
64209;DHT22;50527;52.414;13.226;2022-11-15T16:33:11;9.70;98.40
64209;DHT22;50527;52.414;13.226;2022-11-15T16:35:37;9.60;98.50
64209;DHT22;50527;52.414;13.226;2022-11-15T16:38:02;9.60;97.90
64209;DHT22;50527;52.414;13.226;2022-11-15T16:40:30;9.60;97.80
64209;DHT22;50527;52.414;13.226;2022-11-15T16:42:56;9.50;98.40
64209;DHT22;50527;52.414;13.226;2022-11-15T16:45:23;9.50;98.80
64209;DHT22;50527;52.414;13.226;2022-11-15T16:47:48;9.50;98.50
64209;DHT22;50527;52.414;13.226;2022-11-15T16:50:19;9.50;99.30
64209;DHT22;50527;52.414;13.226;2022-11-15T16:52:49;9.40;98.20
64209;DHT22;50527;52.414;13.226;2022-11-15T16:55:14;9.40;98.70
64209;DHT22;50527;52.414;13.226;2022-11-15T16:57:40;9.40;99.20
64209;DHT22;50527;52.414;13.226;2022-11-15T17:00:07;9.40;98.80
64209;DHT22;50527;52.414;13.226;2022-11-15T17:02:33;9.40;98.70
64209;DHT22;50527;52.414;13.226;2022-11-15T17:04:58;9.30;99.20
64209;DHT22;50527;52.414;13.226;2022-11-15T17:07:24;9.30;99.50
64209;DHT22;50527;52.414;13.226;2022-11-15T17:09:49;9.30;99.90
64209;DHT22;50527;52.414;13.226;2022-11-15T17:12:15;9.30;99.90
64209;DHT22;50527;52.414;13.226;2022-11-15T17:14:41;9.40;99.90
64209;DHT22;50527;52.414;13.226;2022-11-15T17:17:08;9.50;99.90
64209;DHT22;50527;52.414;13.226;2022-11-15T17:19:34;9.50;99.90
64209;DHT22;50527;52.414;13.226;2022-11-15T17:22:00;9.50;99.90
64209;DHT22;50527;52.414;13.226;2022-11-15T17:24:26;9.50;99.90
64209;DHT22;50527;52.414;13.226;2022-11-15T17:26:51;9.60;99.90
64209;DHT22;50527;52.414;13.226;2022-11-15T17:29:17;9.50;99.90
64209;DHT22;50527;52.414;13.226;2022-11-15T17:31:42;9.40;99.90
64209;DHT22;50527;52.414;13.226;2022-11-15T17:34:08;9.30;99.90